createdAt,value
2023-01-13T00:01:45.643Z,28.70
2023-01-13T00:04:13.886Z,27.40
2023-01-13T00:06:42.213Z,19.30
2023-01-13T00:09:11.089Z,27.60
2023-01-13T00:11:39.414Z,24.40
2023-01-13T00:14:07.758Z,19.00
2023-01-13T00:16:36.623Z,33.30
2023-01-13T00:19:04.910Z,26.40
2023-01-13T00:21:33.132Z,34.70
2023-01-13T00:24:01.420Z,21.10
2023-01-13T00:26:36.062Z,21.60
2023-01-13T00:29:04.390Z,26.00
2023-01-13T00:31:33.386Z,26.20
2023-01-13T00:34:19.293Z,23.80
2023-01-13T00:36:48.334Z,19.30
2023-01-13T00:39:17.194Z,22.70
2023-01-13T00:42:04.045Z,17.80
2023-01-13T00:44:32.320Z,25.50
2023-01-13T00:47:01.856Z,22.40
2023-01-13T00:49:31.578Z,31.30
2023-01-13T00:52:43.935Z,21.50
2023-01-13T00:55:13.228Z,14.30
2023-01-13T00:57:43.169Z,21.80
2023-01-13T01:00:14.861Z,24.50
2023-01-13T01:02:44.908Z,33.50
2023-01-13T01:05:13.197Z,20.30
2023-01-13T01:07:41.520Z,19.90
2023-01-13T01:10:10.415Z,18.50
2023-01-13T01:12:58.666Z,20.10
2023-01-13T01:15:27.027Z,21.30
2023-01-13T01:17:55.287Z,21.00
2023-01-13T01:20:30.195Z,17.50
2023-01-13T01:22:58.956Z,22.10
2023-01-13T01:25:27.141Z,21.30
2023-01-13T01:27:55.519Z,23.80
2023-01-13T01:30:23.773Z,20.50
2023-01-13T01:32:51.944Z,37.10
2023-01-13T01:35:20.340Z,21.70
2023-01-13T01:37:48.786Z,23.90
2023-01-13T01:40:17.464Z,21.60
2023-01-13T01:43:04.315Z,31.10
2023-01-13T01:45:32.590Z,20.80
2023-01-13T01:48:03.930Z,24.00
2023-01-13T01:50:33.814Z,25.40
2023-01-13T01:53:19.076Z,22.30
2023-01-13T01:55:47.527Z,37.00
2023-01-13T01:58:17.748Z,23.70
2023-01-13T02:00:46.211Z,22.90
2023-01-13T02:03:17.490Z,23.00
2023-01-13T02:05:45.771Z,17.60
2023-01-13T02:08:15.180Z,17.70
2023-01-13T02:10:47.414Z,27.40
2023-01-13T02:13:16.617Z,26.00
2023-01-13T02:15:58.048Z,20.90
2023-01-13T02:18:53.955Z,19.60
2023-01-13T02:21:34.208Z,22.50
2023-01-13T02:24:53.018Z,18.50
2023-01-13T02:27:53.064Z,22.70
2023-01-13T02:30:45.865Z,19.60
2023-01-13T02:33:36.769Z,23.70
2023-01-13T02:36:15.743Z,23.80
2023-01-13T02:38:53.904Z,17.40
2023-01-13T02:41:57.717Z,16.10
2023-01-13T02:44:32.140Z,22.80
2023-01-13T02:47:32.828Z,25.70
2023-01-13T02:50:06.333Z,21.80
2023-01-13T02:52:46.775Z,16.10
2023-01-13T02:55:20.263Z,16.50
2023-01-13T02:57:53.480Z,23.00
2023-01-13T03:00:49.481Z,19.50
2023-01-13T03:03:21.859Z,18.40
2023-01-13T03:05:56.477Z,15.70
2023-01-13T03:08:30.834Z,21.40
2023-01-13T03:11:05.911Z,21.50
2023-01-13T03:14:30.534Z,21.00
2023-01-13T03:17:17.321Z,17.90
2023-01-13T03:20:07.941Z,19.10
2023-01-13T03:23:22.662Z,26.60
2023-01-13T03:26:07.168Z,16.40
2023-01-13T03:28:52.704Z,24.20
2023-01-13T03:31:30.444Z,20.40
2023-01-13T03:34:04.292Z,21.90
2023-01-13T03:36:35.135Z,19.10
2023-01-13T03:39:10.667Z,21.90
2023-01-13T03:41:49.475Z,22.20
2023-01-13T03:44:25.769Z,23.10
2023-01-13T03:47:09.616Z,19.60
2023-01-13T03:50:17.551Z,21.10
2023-01-13T03:52:50.717Z,20.60
2023-01-13T03:55:23.344Z,25.30
2023-01-13T03:57:54.554Z,25.50
2023-01-13T04:00:28.182Z,21.00
2023-01-13T04:03:12.138Z,20.20
2023-01-13T04:06:20.436Z,20.30
2023-01-13T04:09:02.160Z,25.30
2023-01-13T04:11:44.076Z,23.30
2023-01-13T04:14:16.550Z,21.20
2023-01-13T04:16:45.320Z,19.10
2023-01-13T04:19:14.632Z,36.00
2023-01-13T04:21:43.297Z,22.90
2023-01-13T04:24:11.812Z,28.00
2023-01-13T04:26:40.167Z,24.40
2023-01-13T04:29:09.801Z,24.00
2023-01-13T04:31:38.720Z,31.30
2023-01-13T04:34:07.081Z,24.80
2023-01-13T04:36:36.177Z,22.30
2023-01-13T04:39:04.558Z,23.90
2023-01-13T04:41:51.491Z,28.30
2023-01-13T04:44:20.138Z,25.30
2023-01-13T04:46:48.438Z,36.80
2023-01-13T04:49:17.721Z,38.60
2023-01-13T04:51:45.961Z,36.40
2023-01-13T04:54:35.001Z,20.20
2023-01-13T04:57:20.266Z,27.10
2023-01-13T04:59:53.564Z,18.20
2023-01-13T05:02:26.992Z,18.30
2023-01-13T05:04:56.248Z,16.90
2023-01-13T05:07:24.730Z,27.90
2023-01-13T05:09:53.832Z,25.20
2023-01-13T05:12:41.714Z,27.00
2023-01-13T05:15:33.530Z,22.10
2023-01-13T05:18:04.193Z,31.20
2023-01-13T05:20:33.840Z,16.80
2023-01-13T05:23:21.190Z,24.80
2023-01-13T05:25:50.526Z,13.60
2023-01-13T05:28:19.604Z,23.30
2023-01-13T05:30:49.702Z,27.00
2023-01-13T05:33:20.546Z,25.40
2023-01-13T05:35:49.920Z,20.90
2023-01-13T05:38:18.896Z,23.00
2023-01-13T05:41:05.967Z,22.60
2023-01-13T05:43:35.149Z,19.00
2023-01-13T05:46:07.101Z,23.10
2023-01-13T05:48:40.604Z,19.20
2023-01-13T05:51:11.608Z,27.10
2023-01-13T05:53:44.026Z,19.30
2023-01-13T05:56:12.484Z,27.80
2023-01-13T05:58:43.071Z,22.40
2023-01-13T06:01:11.646Z,25.70
2023-01-13T06:03:40.398Z,29.80
2023-01-13T06:06:09.258Z,30.20
2023-01-13T06:08:39.917Z,35.80
2023-01-13T06:11:08.516Z,23.50
2023-01-13T06:13:37.697Z,19.90
2023-01-13T06:16:06.430Z,28.70
2023-01-13T06:18:34.722Z,27.20
2023-01-13T06:21:02.982Z,27.80
2023-01-13T06:23:35.406Z,24.30
2023-01-13T06:26:20.034Z,21.30
2023-01-13T06:28:50.832Z,23.30
2023-01-13T06:31:20.237Z,31.00
2023-01-13T06:33:58.018Z,37.40
2023-01-13T06:36:37.029Z,40.70
2023-01-13T06:39:06.606Z,35.80
2023-01-13T06:41:53.738Z,27.30
2023-01-13T06:44:24.313Z,25.80
2023-01-13T06:46:52.896Z,23.30
2023-01-13T06:49:21.867Z,28.90
2023-01-13T06:51:50.716Z,24.90
2023-01-13T06:54:19.052Z,22.60
2023-01-13T06:56:47.408Z,31.40
2023-01-13T06:59:15.832Z,33.10
2023-01-13T07:01:44.323Z,29.60
2023-01-13T07:04:12.851Z,28.40
2023-01-13T07:06:41.139Z,19.20
2023-01-13T07:09:10.470Z,32.30
2023-01-13T07:11:39.024Z,34.40
2023-01-13T07:14:26.398Z,33.70
2023-01-13T07:16:55.619Z,25.30
2023-01-13T07:19:24.176Z,20.00
2023-01-13T07:21:53.108Z,31.00
2023-01-13T07:24:22.749Z,29.00
2023-01-13T07:26:53.907Z,26.30
2023-01-13T07:29:22.427Z,23.30
2023-01-13T07:31:50.897Z,28.10
2023-01-13T07:34:19.516Z,23.80
2023-01-13T07:36:47.773Z,37.90
2023-01-13T07:39:16.118Z,29.10
2023-01-13T07:42:03.114Z,29.20
2023-01-13T07:44:32.572Z,48.20
2023-01-13T07:47:00.765Z,22.50
2023-01-13T07:49:29.059Z,30.40
2023-01-13T07:51:57.627Z,24.10
2023-01-13T07:54:39.743Z,40.50
2023-01-13T07:57:11.351Z,20.30
2023-01-13T07:59:40.756Z,28.10
2023-01-13T08:02:29.744Z,24.20
2023-01-13T08:04:58.451Z,17.90
2023-01-13T08:07:29.966Z,25.10
2023-01-13T08:09:58.818Z,29.90
2023-01-13T08:12:51.930Z,28.90
2023-01-13T08:15:25.179Z,25.30
2023-01-13T08:17:53.985Z,25.80
2023-01-13T08:20:23.341Z,27.70
2023-01-13T08:22:51.835Z,32.50
2023-01-13T08:25:20.890Z,29.20
2023-01-13T08:27:51.097Z,35.50
2023-01-13T08:30:19.602Z,21.90
2023-01-13T08:32:49.513Z,24.20
2023-01-13T08:35:19.269Z,25.80
2023-01-13T08:37:48.632Z,17.70
2023-01-13T08:40:21.086Z,16.10
2023-01-13T08:42:49.501Z,25.30
2023-01-13T08:45:18.389Z,19.30
2023-01-13T08:47:47.784Z,22.90
2023-01-13T08:50:16.376Z,21.40
2023-01-13T08:52:45.620Z,22.50
2023-01-13T08:55:14.892Z,20.00
2023-01-13T08:57:43.237Z,20.10
2023-01-13T09:00:12.267Z,21.20
2023-01-13T09:02:40.550Z,19.70
2023-01-13T09:05:10.488Z,25.30
2023-01-13T09:07:39.146Z,19.60
2023-01-13T09:10:08.669Z,17.60
2023-01-13T09:12:55.660Z,27.20
2023-01-13T09:15:23.938Z,25.90
2023-01-13T09:17:52.231Z,20.80
2023-01-13T09:20:20.555Z,23.60
2023-01-13T09:22:48.815Z,27.70
2023-01-13T09:25:17.142Z,22.50
2023-01-13T09:27:45.336Z,25.70
2023-01-13T09:30:13.847Z,25.20
2023-01-13T09:32:42.075Z,21.60
2023-01-13T09:35:10.280Z,16.90
2023-01-13T09:37:40.748Z,19.00
2023-01-13T09:40:27.132Z,20.70
2023-01-13T09:43:22.012Z,29.40
2023-01-13T09:45:58.334Z,21.00
2023-01-13T09:48:52.409Z,22.40
2023-01-13T09:51:33.323Z,22.00
2023-01-13T09:54:20.999Z,17.80
2023-01-13T09:56:49.213Z,17.50
2023-01-13T09:59:17.536Z,17.60
2023-01-13T10:01:59.791Z,21.10
2023-01-13T10:04:28.305Z,19.20
2023-01-13T10:07:02.484Z,21.00
2023-01-13T10:09:33.881Z,27.70
2023-01-13T10:12:21.876Z,19.50
2023-01-13T10:14:56.202Z,23.60
2023-01-13T10:17:43.312Z,28.70
2023-01-13T10:20:31.555Z,25.20
2023-01-13T10:23:34.836Z,22.50
2023-01-13T10:26:34.522Z,30.30
2023-01-13T10:29:02.774Z,28.80
2023-01-13T10:31:31.176Z,25.00
2023-01-13T10:34:02.168Z,20.60
2023-01-13T10:36:30.808Z,19.80
2023-01-13T10:39:10.555Z,22.00
2023-01-13T10:41:38.849Z,15.60
2023-01-13T10:44:16.477Z,16.70
2023-01-13T10:46:55.676Z,25.00
2023-01-13T10:49:39.055Z,26.90
2023-01-13T10:52:27.216Z,24.80
2023-01-13T10:54:56.180Z,26.00
2023-01-13T10:57:27.382Z,25.60
2023-01-13T10:59:56.615Z,24.20
2023-01-13T11:02:27.185Z,25.80
2023-01-13T11:04:55.903Z,25.90
2023-01-13T11:07:30.088Z,20.50
2023-01-13T11:13:26.574Z,21.90
2023-01-13T11:16:12.156Z,22.60
2023-01-13T11:19:02.263Z,22.80
2023-01-13T11:21:39.062Z,25.10
2023-01-13T11:24:21.783Z,31.20
2023-01-13T11:27:02.317Z,24.50
2023-01-13T11:30:00.432Z,25.60
2023-01-13T11:32:33.610Z,27.70
2023-01-13T11:35:11.356Z,31.90
2023-01-13T11:37:45.512Z,24.30
2023-01-13T11:40:21.703Z,28.90
2023-01-13T11:43:03.987Z,22.60
2023-01-13T11:45:44.268Z,26.40
2023-01-13T11:48:16.426Z,28.30
2023-01-13T11:50:54.211Z,22.50
2023-01-13T11:53:33.342Z,27.30
2023-01-13T11:56:13.867Z,17.50
2023-01-13T11:58:53.439Z,21.30
2023-01-13T12:01:28.538Z,24.40
2023-01-13T12:04:26.210Z,23.40
2023-01-13T12:07:14.264Z,20.50
2023-01-13T12:09:54.878Z,20.90
2023-01-13T12:12:44.863Z,29.70
2023-01-13T12:15:13.058Z,20.90
2023-01-13T12:17:53.041Z,25.30
2023-01-13T12:20:44.088Z,25.20
2023-01-13T12:23:35.504Z,18.50
2023-01-13T12:26:10.590Z,21.30
2023-01-13T12:29:01.016Z,24.50
2023-01-13T12:31:32.212Z,23.60
2023-01-13T12:34:09.614Z,31.80
2023-01-13T12:36:50.230Z,23.80
2023-01-13T12:39:40.408Z,20.60
2023-01-13T12:42:29.821Z,34.20
2023-01-13T12:45:10.452Z,29.80
2023-01-13T12:47:40.372Z,30.80
2023-01-13T12:50:24.176Z,22.40
2023-01-13T12:53:21.573Z,41.50
2023-01-13T12:55:53.431Z,38.80
2023-01-13T12:58:28.775Z,33.30
2023-01-13T13:01:01.756Z,32.50
2023-01-13T13:03:35.666Z,29.30
2023-01-13T13:06:19.053Z,30.80
2023-01-13T13:08:51.896Z,22.30
2023-01-13T13:11:54.558Z,24.30
2023-01-13T13:14:38.340Z,25.80
2023-01-13T13:17:29.299Z,30.80
2023-01-13T13:19:59.971Z,34.80
2023-01-13T13:22:28.750Z,29.80
2023-01-13T13:24:59.840Z,34.50
2023-01-13T13:27:27.955Z,26.90
2023-01-13T13:30:15.380Z,39.50
2023-01-13T13:33:08.618Z,41.90
2023-01-13T13:36:03.275Z,33.00
2023-01-13T13:41:43.321Z,45.40
2023-01-13T13:44:41.557Z,38.00
2023-01-13T13:47:10.201Z,28.20
2023-01-13T13:49:46.033Z,37.80
2023-01-13T13:52:38.780Z,33.20
2023-01-13T13:55:20.284Z,29.50
2023-01-13T13:57:54.482Z,36.90
2023-01-13T14:00:29.706Z,35.60
2023-01-13T14:03:02.018Z,25.30
2023-01-13T14:05:36.478Z,29.00
2023-01-13T14:08:18.100Z,27.60
2023-01-13T14:10:46.809Z,33.10
2023-01-13T14:13:38.419Z,34.80
2023-01-13T14:16:11.380Z,36.70
2023-01-13T14:18:48.249Z,30.90
2023-01-13T14:21:25.849Z,29.70
2023-01-13T14:23:57.313Z,37.50
2023-01-13T14:26:34.316Z,41.70
2023-01-13T14:29:03.553Z,38.20
2023-01-13T14:31:32.705Z,32.00
2023-01-13T14:34:32.497Z,31.30
2023-01-13T14:36:53.495Z,47.50
2023-01-13T14:39:32.841Z,36.80
2023-01-13T14:42:01.216Z,35.90
2023-01-13T14:44:37.051Z,35.50
2023-01-13T14:47:19.970Z,29.80
2023-01-13T14:50:02.559Z,28.30
2023-01-13T14:52:46.729Z,34.10
2023-01-13T14:55:31.215Z,54.50
2023-01-13T14:58:31.249Z,61.10
2023-01-13T15:01:36.656Z,43.60
2023-01-13T15:04:38.433Z,56.70
2023-01-13T15:07:23.505Z,45.70
2023-01-13T15:09:55.340Z,58.10
2023-01-13T15:12:31.603Z,50.50
2023-01-13T15:15:00.509Z,39.00
2023-01-13T15:17:28.713Z,61.70
2023-01-13T15:19:57.002Z,44.90
2023-01-13T15:22:25.249Z,51.60
2023-01-13T15:24:53.597Z,56.80
2023-01-13T15:27:26.125Z,58.10
2023-01-13T15:29:54.428Z,47.60
2023-01-13T15:32:22.871Z,41.70
2023-01-13T15:34:53.266Z,36.90
2023-01-13T15:37:21.940Z,36.30
2023-01-13T15:39:50.767Z,39.10
2023-01-13T15:42:37.776Z,33.80
2023-01-13T15:45:25.153Z,40.00
2023-01-13T15:47:53.389Z,33.80
2023-01-13T15:50:23.148Z,38.90
2023-01-13T15:52:51.438Z,38.00
2023-01-13T15:55:19.673Z,35.40
2023-01-13T15:57:50.475Z,40.40
2023-01-13T16:00:21.784Z,33.60
2023-01-13T16:02:50.353Z,43.20
2023-01-13T16:05:18.726Z,37.90
2023-01-13T16:07:47.420Z,33.50
2023-01-13T16:10:27.824Z,36.30
2023-01-13T16:12:56.112Z,35.90
2023-01-13T16:15:26.243Z,36.00
2023-01-13T16:18:01.292Z,38.20
2023-01-13T16:20:29.651Z,50.20
2023-01-13T16:22:57.869Z,45.10
2023-01-13T16:25:27.615Z,36.70
2023-01-13T16:27:55.860Z,52.90
2023-01-13T16:30:26.202Z,45.30
2023-01-13T16:32:55.489Z,37.20
2023-01-13T16:35:25.292Z,59.10
2023-01-13T16:37:54.379Z,64.80
2023-01-13T16:40:31.188Z,52.30
2023-01-13T16:43:02.033Z,73.10
2023-01-13T16:45:31.774Z,50.80
2023-01-13T16:48:00.470Z,63.50
2023-01-13T16:50:41.396Z,49.40
2023-01-13T16:53:10.560Z,41.30
2023-01-13T16:55:40.980Z,50.40
2023-01-13T16:58:18.006Z,41.70
2023-01-13T17:00:47.670Z,58.30
2023-01-13T17:03:17.046Z,44.40
2023-01-13T17:05:49.751Z,49.80
2023-01-13T17:08:18.325Z,48.80
2023-01-13T17:10:47.415Z,49.60
2023-01-13T17:13:17.293Z,40.90
2023-01-13T17:15:46.358Z,40.30
2023-01-13T17:18:14.519Z,55.30
2023-01-13T17:20:42.704Z,40.30
2023-01-13T17:23:10.912Z,47.90
2023-01-13T17:25:39.123Z,54.20
2023-01-13T17:28:07.362Z,46.10
2023-01-13T17:30:35.597Z,47.90
2023-01-13T17:33:03.902Z,56.40
2023-01-13T17:35:32.105Z,68.00
2023-01-13T17:38:02.161Z,64.50
2023-01-13T17:40:30.314Z,45.20
2023-01-13T17:42:58.572Z,61.20
2023-01-13T17:45:27.066Z,65.90
2023-01-13T17:48:00.997Z,50.90
2023-01-13T17:50:30.984Z,56.30
2023-01-13T17:52:59.244Z,55.20
2023-01-13T17:55:27.493Z,64.00
2023-01-13T17:57:55.766Z,81.10
2023-01-13T18:00:24.033Z,65.80
2023-01-13T18:02:52.673Z,55.90
2023-01-13T18:05:21.646Z,53.90
2023-01-13T18:07:51.169Z,60.20
2023-01-13T18:10:19.615Z,45.30
2023-01-13T18:12:47.787Z,48.30
2023-01-13T18:15:16.096Z,42.20
2023-01-13T18:17:46.301Z,58.20
2023-01-13T18:20:55.571Z,37.70
2023-01-13T18:23:42.640Z,38.10
2023-01-13T18:26:36.957Z,43.10
2023-01-13T18:29:06.225Z,41.60
2023-01-13T18:31:34.594Z,45.40
2023-01-13T18:34:02.842Z,45.30
2023-01-13T18:36:30.999Z,45.70
2023-01-13T18:38:59.226Z,45.70
2023-01-13T18:41:46.290Z,54.10
2023-01-13T18:44:14.683Z,35.10
2023-01-13T18:46:42.803Z,48.30
2023-01-13T18:49:11.045Z,45.70
2023-01-13T18:51:39.866Z,53.40
2023-01-13T18:54:07.996Z,48.80
2023-01-13T18:56:36.328Z,40.00
2023-01-13T18:59:04.816Z,42.10
2023-01-13T19:01:33.224Z,44.80
2023-01-13T19:04:03.260Z,39.80
2023-01-13T19:06:33.817Z,40.80
2023-01-13T19:09:08.946Z,40.10
2023-01-13T19:11:37.171Z,51.10
2023-01-13T19:14:05.375Z,43.40
2023-01-13T19:16:33.551Z,29.00
2023-01-13T19:19:02.506Z,48.90
2023-01-13T19:21:30.721Z,42.10
2023-01-13T19:23:58.959Z,42.40
2023-01-13T19:26:27.207Z,41.00
2023-01-13T19:28:55.498Z,40.00
2023-01-13T19:31:23.786Z,34.20
2023-01-13T19:33:52.132Z,39.20
2023-01-13T19:36:20.590Z,37.60
2023-01-13T19:38:48.784Z,50.20
2023-01-13T19:41:35.666Z,39.60
2023-01-13T19:44:23.330Z,41.10
2023-01-13T19:46:51.705Z,30.30
2023-01-13T19:49:20.213Z,36.00
2023-01-13T19:51:48.967Z,58.10
2023-01-13T19:54:17.162Z,52.90
2023-01-13T19:56:45.392Z,35.80
2023-01-13T19:59:13.784Z,48.20
2023-01-13T20:01:42.141Z,39.40
2023-01-13T20:04:14.644Z,48.50
2023-01-13T20:06:44.647Z,33.50
2023-01-13T20:09:12.951Z,50.80
2023-01-13T20:11:41.168Z,41.30
2023-01-13T20:14:09.654Z,63.70
2023-01-13T20:16:37.929Z,43.80
2023-01-13T20:19:06.151Z,49.00
2023-01-13T20:21:34.414Z,41.90
2023-01-13T20:24:02.764Z,54.10
2023-01-13T20:26:34.574Z,58.40
2023-01-13T20:29:02.866Z,33.20
2023-01-13T20:31:31.068Z,49.40
2023-01-13T20:33:59.297Z,54.40
2023-01-13T20:36:34.336Z,60.70
2023-01-13T20:39:04.770Z,48.20
2023-01-13T20:41:51.593Z,54.30
2023-01-13T20:44:19.795Z,60.10
2023-01-13T20:46:48.357Z,55.50
2023-01-13T20:49:16.738Z,55.30
2023-01-13T20:51:44.908Z,50.50
2023-01-13T20:54:13.601Z,71.40
2023-01-13T20:56:41.757Z,48.30
2023-01-13T20:59:10.174Z,51.70
2023-01-13T21:01:39.331Z,39.70
2023-01-13T21:04:08.685Z,49.90
2023-01-13T21:06:37.012Z,48.70
2023-01-13T21:09:05.284Z,35.20
2023-01-13T21:11:52.423Z,38.50
2023-01-13T21:14:42.478Z,47.40
2023-01-13T21:17:33.281Z,62.60
2023-01-13T21:20:04.141Z,37.30
2023-01-13T21:22:32.645Z,39.90
2023-01-13T21:25:02.566Z,40.10
2023-01-13T21:27:34.560Z,39.60
2023-01-13T21:30:02.926Z,46.30
2023-01-13T21:32:31.172Z,34.30
2023-01-13T21:34:59.452Z,28.90
2023-01-13T21:37:28.255Z,28.60
2023-01-13T21:39:56.531Z,37.60
2023-01-13T21:42:43.466Z,34.50
2023-01-13T21:45:30.461Z,25.80
2023-01-13T21:47:58.853Z,24.60
2023-01-13T21:50:29.166Z,33.90
2023-01-13T21:52:58.838Z,33.30
2023-01-13T21:55:28.802Z,39.30
2023-01-13T21:57:58.126Z,25.90
2023-01-13T22:00:28.531Z,40.50
2023-01-13T22:02:58.632Z,44.00
2023-01-13T22:05:27.518Z,37.00
2023-01-13T22:07:55.774Z,60.10
2023-01-13T22:10:26.708Z,46.10
2023-01-13T22:12:56.798Z,37.20
2023-01-13T22:15:28.448Z,29.20
2023-01-13T22:17:57.255Z,47.30
2023-01-13T22:20:25.896Z,101.00
2023-01-13T22:22:54.023Z,32.10
2023-01-13T22:25:23.897Z,81.60
2023-01-13T22:27:56.071Z,54.80
2023-01-13T22:30:25.340Z,25.40
2023-01-13T22:32:53.542Z,35.00
2023-01-13T22:35:21.718Z,30.70
2023-01-13T22:37:49.926Z,21.30
2023-01-13T22:40:18.120Z,24.30
2023-01-13T22:42:46.466Z,24.20
2023-01-13T22:45:15.095Z,24.10
2023-01-13T22:47:43.410Z,29.50
2023-01-13T22:50:12.815Z,29.50
2023-01-13T22:52:41.207Z,23.10
2023-01-13T22:55:10.191Z,26.00
2023-01-13T22:57:47.317Z,31.80
2023-01-13T23:00:19.342Z,22.80
2023-01-13T23:02:47.676Z,26.60
2023-01-13T23:05:16.016Z,26.80
2023-01-13T23:07:44.226Z,31.40
2023-01-13T23:10:12.445Z,47.30
2023-01-13T23:12:40.641Z,29.30
2023-01-13T23:15:09.260Z,33.20
2023-01-13T23:17:37.513Z,25.50
2023-01-13T23:20:05.933Z,31.60
2023-01-13T23:22:37.015Z,54.30
2023-01-13T23:25:05.577Z,36.40
2023-01-13T23:27:37.095Z,23.60
2023-01-13T23:30:08.831Z,24.50
2023-01-13T23:32:37.158Z,40.00
2023-01-13T23:35:05.779Z,45.60
2023-01-13T23:37:34.680Z,54.50
2023-01-13T23:40:03.017Z,67.00
2023-01-13T23:42:31.269Z,30.90
2023-01-13T23:44:59.493Z,19.30
2023-01-13T23:47:28.957Z,38.80
2023-01-13T23:49:57.149Z,28.60
2023-01-13T23:52:25.362Z,19.80
2023-01-13T23:54:53.588Z,40.50
2023-01-13T23:57:21.873Z,43.50
2023-01-13T23:59:50.034Z,21.80
